Time;durP1;ratioP1;P1;durP2;ratioP2;P2;SDS_P1;SDS_P2;PMS_P1;PMS_P2;Temp;Humidity;BMP_temperature;BMP_pressure;BME280_temperature;BME280_humidity;BME280_pressure;Samples;Min_cycle;Max_cycle;Signal;HPM_P1;HPM_P2
2022/04/11 00:01:43;;;;;;;5.40;3.60;;;0.70;99.90;;;;;;5040320;28;20392;-87
2022/04/11 00:04:14;;;;;;;5.65;3.65;;;0.70;99.90;;;;;;5041649;28;20618;-88
2022/04/11 00:06:43;;;;;;;6.22;4.18;;;0.70;99.90;;;;;;5041362;28;20128;-87
2022/04/11 00:09:08;;;;;;;6.78;4.43;;;0.70;99.90;;;;;;5041102;28;20111;-88
2022/04/11 00:11:34;;;;;;;6.88;4.28;;;0.70;99.90;;;;;;5055735;28;20117;-88
2022/04/11 00:14:01;;;;;;;8.52;4.30;;;0.70;99.90;;;;;;5043645;28;20040;-88
2022/04/11 00:16:28;;;;;;;8.52;3.72;;;0.60;99.90;;;;;;5045604;28;20078;-87
2022/04/11 00:18:54;;;;;;;5.60;3.83;;;0.70;99.90;;;;;;5046094;28;20476;-88
2022/04/11 00:21:20;;;;;;;8.95;4.10;;;0.60;99.90;;;;;;5061419;28;20033;-89
2022/04/11 00:23:45;;;;;;;5.78;3.72;;;0.60;99.90;;;;;;5045733;28;20124;-87
2022/04/11 00:26:11;;;;;;;7.75;4.28;;;0.50;99.90;;;;;;5045507;28;20404;-88
2022/04/11 00:28:37;;;;;;;7.15;3.97;;;0.50;99.90;;;;;;5046524;28;20043;-89
2022/04/11 00:31:03;;;;;;;5.95;3.72;;;0.50;99.90;;;;;;5045775;28;20088;-88
2022/04/11 00:33:29;;;;;;;9.90;4.38;;;0.50;99.90;;;;;;5045211;28;20032;-89
2022/04/11 00:35:54;;;;;;;5.30;3.95;;;0.50;99.90;;;;;;5047090;28;20052;-88
2022/04/11 00:38:23;;;;;;;8.35;4.15;;;0.40;99.90;;;;;;5042321;28;20051;-89
2022/04/11 00:40:49;;;;;;;8.60;4.10;;;0.50;99.90;;;;;;5044607;28;20091;-88
2022/04/11 00:43:35;;;;;;;5.90;4.20;;;0.40;99.90;;;;;;5047965;28;20491;-88
2022/04/11 00:46:01;;;;;;;4.82;3.95;;;0.50;99.90;;;;;;5062731;28;20094;-88
2022/04/11 00:48:27;;;;;;;7.70;3.88;;;0.50;99.90;;;;;;5055739;28;20517;-89
2022/04/11 00:51:22;;;;;;;5.40;4.15;;;0.40;1.00;;;;;;5046994;28;20116;-88
2022/04/11 00:54:08;;;;;;;6.45;3.88;;;0.40;1.00;;;;;;5073155;28;20040;-88
2022/04/11 00:56:38;;;;;;;5.53;3.58;;;0.30;98.20;;;;;;5052355;28;20105;-89
2022/04/11 00:59:04;;;;;;;6.47;3.63;;;0.30;68.50;;;;;;5056260;28;20054;-89
2022/04/11 01:01:30;;;;;;;6.03;3.75;;;0.30;15.40;;;;;;5045395;28;20131;-88
2022/04/11 01:04:02;;;;;;;5.10;3.42;;;0.30;1.00;;;;;;5045150;28;20028;-88
2022/04/11 01:06:28;;;;;;;5.70;3.83;;;0.30;1.00;;;;;;5043722;28;20152;-89
2022/04/11 01:08:57;;;;;;;5.63;3.45;;;0.30;1.00;;;;;;5042905;28;20127;-88
2022/04/11 01:11:23;;;;;;;6.50;4.30;;;0.20;1.00;;;;;;5061570;28;20161;-88
2022/04/11 01:13:49;;;;;;;5.80;3.40;;;0.20;1.00;;;;;;5045522;28;20102;-88
2022/04/11 01:16:27;;;;;;;6.70;3.38;;;0.20;1.00;;;;;;5063404;28;20052;-88
2022/04/11 01:18:53;;;;;;;4.95;3.22;;;0.10;7.30;;;;;;5045717;28;20106;-88
2022/04/11 01:21:19;;;;;;;5.88;2.90;;;0.20;11.40;;;;;;5035959;28;20127;-88
2022/04/11 01:23:52;;;;;;;5.57;3.03;;;0.20;33.40;;;;;;5044465;28;20533;-88
2022/04/11 01:26:22;;;;;;;4.95;2.75;;;0.20;8.40;;;;;;5043005;28;20601;-88
2022/04/11 01:28:49;;;;;;;6.45;3.20;;;0.10;1.00;;;;;;5043318;28;20516;-88
2022/04/11 01:31:16;;;;;;;5.63;3.47;;;0.10;1.00;;;;;;5044390;28;20044;-88
2022/04/11 01:33:42;;;;;;;5.75;2.75;;;0.20;16.20;;;;;;5060956;28;20040;-88
2022/04/11 01:36:10;;;;;;;5.45;2.90;;;0.20;30.00;;;;;;5043697;28;20048;-88
2022/04/11 01:38:39;;;;;;;5.53;3.30;;;0.20;47.30;;;;;;5043771;28;20036;-88
2022/04/11 01:41:05;;;;;;;5.03;3.20;;;0.10;13.40;;;;;;5056877;28;20108;-88
2022/04/11 01:43:31;;;;;;;5.10;3.30;;;0.10;66.70;;;;;;5039765;28;20420;-88
2022/04/11 01:45:56;;;;;;;6.15;3.97;;;0.10;33.70;;;;;;5043093;28;20131;-89
2022/04/11 01:48:22;;;;;;;7.78;4.03;;;0.10;78.40;;;;;;5060999;28;20392;-87
2022/04/11 01:50:48;;;;;;;5.20;3.75;;;0.20;99.90;;;;;;5043871;28;20035;-88
2022/04/11 01:53:16;;;;;;;7.22;3.30;;;0.20;99.90;;;;;;5058919;28;20037;-87
2022/04/11 01:55:45;;;;;;;8.05;5.00;;;0.20;99.90;;;;;;5042243;28;20144;-87
2022/04/11 01:58:11;;;;;;;8.80;4.45;;;0.20;99.90;;;;;;5042992;28;20036;-88
2022/04/11 02:00:38;;;;;;;8.73;4.57;;;0.20;99.90;;;;;;5044727;28;20055;-89
2022/04/11 02:03:05;;;;;;;6.65;4.75;;;0.20;99.90;;;;;;5042833;28;20037;-87
2022/04/11 02:05:31;;;;;;;10.15;4.57;;;0.30;99.90;;;;;;5061034;28;20055;-88
2022/04/11 02:08:02;;;;;;;10.57;4.50;;;0.20;99.90;;;;;;5042124;28;20480;-87
2022/04/11 02:10:28;;;;;;;7.28;3.72;;;0.30;99.90;;;;;;5041640;28;20122;-89
2022/04/11 02:12:54;;;;;;;7.88;3.90;;;0.30;99.90;;;;;;5043710;28;20036;-88
2022/04/11 02:15:20;;;;;;;7.28;4.55;;;0.30;99.90;;;;;;5044115;28;20036;-87
2022/04/11 02:17:46;;;;;;;5.75;4.18;;;0.30;99.90;;;;;;5042604;28;20565;-88
2022/04/11 02:20:16;;;;;;;7.28;3.92;;;0.20;99.90;;;;;;5058370;28;20036;-88
2022/04/11 02:22:48;;;;;;;9.15;4.20;;;0.20;99.90;;;;;;5042367;28;20431;-88
2022/04/11 02:25:15;;;;;;;8.13;4.15;;;0.30;99.90;;;;;;5043597;28;20076;-87
2022/04/11 02:27:44;;;;;;;7.47;4.47;;;0.30;95.10;;;;;;5059897;28;20297;-87
2022/04/11 02:30:12;;;;;;;9.70;3.92;;;0.20;99.90;;;;;;5043944;28;20076;-87
2022/04/11 02:32:38;;;;;;;4.50;3.65;;;0.20;99.90;;;;;;5053901;28;20478;-89
2022/04/11 02:35:04;;;;;;;8.68;3.65;;;0.20;99.90;;;;;;5059774;28;20509;-87
2022/04/11 02:37:31;;;;;;;4.80;3.63;;;0.20;99.90;;;;;;5058628;28;20119;-86
2022/04/11 02:39:57;;;;;;;6.60;3.83;;;0.20;99.90;;;;;;5058237;28;20028;-87
2022/04/11 02:42:24;;;;;;;5.18;3.28;;;0.20;99.90;;;;;;5060015;28;20128;-87
2022/04/11 02:44:50;;;;;;;5.88;3.70;;;0.10;99.90;;;;;;5044026;28;20097;-88
2022/04/11 02:47:16;;;;;;;5.13;3.40;;;0.10;99.90;;;;;;5043129;28;20122;-88
2022/04/11 02:49:43;;;;;;;5.53;3.45;;;0.10;99.90;;;;;;5059655;28;20044;-88
2022/04/11 02:52:09;;;;;;;4.25;3.15;;;0.10;99.90;;;;;;5042820;28;20025;-88
2022/04/11 02:54:36;;;;;;;5.07;3.50;;;0.10;99.90;;;;;;5042096;28;20403;-88
2022/04/11 02:57:02;;;;;;;7.55;3.78;;;0.10;99.90;;;;;;5059634;28;20521;-87
2022/04/11 02:59:28;;;;;;;7.32;3.63;;;0.00;99.90;;;;;;5043394;28;20258;-89
2022/04/11 03:01:55;;;;;;;5.13;3.30;;;0.00;99.90;;;;;;5059806;28;20032;-88
2022/04/11 03:04:20;;;;;;;6.93;3.80;;;0.00;99.90;;;;;;5043175;28;20075;-88
2022/04/11 03:06:46;;;;;;;6.47;3.63;;;0.00;99.90;;;;;;5040838;28;20060;-88
2022/04/11 03:09:12;;;;;;;5.53;3.17;;;0.00;99.90;;;;;;5041820;28;20028;-88
2022/04/11 03:11:38;;;;;;;5.85;4.00;;;0.00;99.90;;;;;;5058451;28;20048;-88
2022/04/11 03:14:03;;;;;;;5.30;3.50;;;0.00;99.90;;;;;;5042333;28;20085;-88
2022/04/11 03:16:30;;;;;;;7.65;3.55;;;0.00;99.90;;;;;;5038151;28;20044;-88
2022/04/11 03:18:56;;;;;;;4.95;4.15;;;0.00;99.90;;;;;;5042089;28;20087;-88
2022/04/11 03:21:22;;;;;;;7.70;4.05;;;0.00;99.90;;;;;;5053928;28;20044;-88
2022/04/11 03:23:53;;;;;;;5.78;3.90;;;0.10;99.90;;;;;;5057784;28;20036;-88
2022/04/11 03:26:18;;;;;;;4.00;3.33;;;0.00;99.90;;;;;;5041757;28;20128;-89
2022/04/11 03:28:44;;;;;;;9.18;4.03;;;0.10;99.90;;;;;;5043499;28;20131;-89
2022/04/11 03:31:13;;;;;;;8.50;3.67;;;0.10;99.90;;;;;;5040900;28;20043;-89
2022/04/11 03:33:39;;;;;;;6.13;4.00;;;0.10;99.90;;;;;;5059677;28;20404;-88
2022/04/11 03:36:07;;;;;;;6.65;3.22;;;0.20;99.90;;;;;;5042338;28;20044;-88
2022/04/11 03:38:33;;;;;;;5.50;3.75;;;0.20;99.90;;;;;;5058845;28;20059;-88
2022/04/11 03:41:04;;;;;;;4.95;3.50;;;0.20;99.90;;;;;;5056629;28;20044;-89
2022/04/11 03:43:30;;;;;;;5.40;3.88;;;0.30;99.90;;;;;;5040952;28;20037;-87
2022/04/11 03:45:56;;;;;;;5.05;3.25;;;0.30;99.90;;;;;;5041852;28;20297;-88
2022/04/11 03:48:22;;;;;;;5.38;3.65;;;0.30;99.90;;;;;;5041170;28;20384;-87
2022/04/11 03:50:48;;;;;;;6.78;3.40;;;0.40;99.90;;;;;;5041823;28;20478;-88
2022/04/11 03:53:16;;;;;;;5.55;3.70;;;0.40;99.90;;;;;;5041881;28;20028;-89
2022/04/11 03:55:45;;;;;;;6.35;3.25;;;0.40;99.90;;;;;;5057582;28;20036;-88
2022/04/11 03:58:11;;;;;;;4.40;3.30;;;0.50;99.90;;;;;;5040378;28;20060;-89
2022/04/11 04:00:37;;;;;;;7.93;3.28;;;0.50;99.90;;;;;;5055580;28;20101;-88
2022/04/11 04:03:12;;;;;;;4.75;3.20;;;0.50;73.80;;;;;;5041836;28;20529;-88
2022/04/11 04:05:42;;;;;;;8.55;3.65;;;0.60;13.00;;;;;;5056934;28;20048;-87
2022/04/11 04:08:12;;;;;;;5.40;3.33;;;0.60;1.00;;;;;;5039273;28;20048;-89
2022/04/11 04:10:40;;;;;;;3.85;3.20;;;0.60;1.00;;;;;;5040768;28;20045;-88
2022/04/11 04:13:06;;;;;;;7.40;3.13;;;0.70;1.00;;;;;;5042157;28;20198;-88
2022/04/11 04:15:32;;;;;;;10.23;3.20;;;0.80;99.90;;;;;;5043105;28;20040;-88
2022/04/11 04:17:58;;;;;;;5.97;3.13;;;0.80;99.90;;;;;;5040528;28;20056;-88
2022/04/11 04:20:27;;;;;;;5.65;3.20;;;0.90;99.90;;;;;;5053611;28;20056;-88
2022/04/11 04:22:56;;;;;;;5.85;3.33;;;0.90;99.90;;;;;;5057180;28;20048;-87
2022/04/11 04:25:23;;;;;;;3.42;2.80;;;0.90;99.90;;;;;;5040484;28;20135;-89
2022/04/11 04:27:49;;;;;;;7.70;2.90;;;0.90;99.90;;;;;;5041839;28;20173;-88
2022/04/11 04:30:15;;;;;;;11.05;3.22;;;0.90;99.90;;;;;;5040890;28;20448;-88
2022/04/11 04:32:43;;;;;;;5.38;3.33;;;0.90;39.00;;;;;;5041637;28;20744;-87
2022/04/11 04:35:12;;;;;;;5.43;2.97;;;0.90;99.90;;;;;;5053113;28;20033;-88
2022/04/11 04:37:40;;;;;;;5.40;3.15;;;1.00;99.90;;;;;;5041000;28;20064;-88
2022/04/11 04:40:07;;;;;;;8.40;3.17;;;1.00;99.90;;;;;;5056805;28;20037;-88
2022/04/11 04:42:32;;;;;;;6.75;2.92;;;1.10;99.90;;;;;;5042248;28;20111;-88
2022/04/11 04:44:58;;;;;;;7.10;3.40;;;1.10;99.90;;;;;;5043230;28;22250;-88
2022/04/11 04:47:25;;;;;;;4.00;2.90;;;1.10;99.90;;;;;;5057236;28;20048;-89
2022/04/11 04:49:51;;;;;;;5.47;3.25;;;1.10;99.90;;;;;;5041062;28;20035;-89
2022/04/11 04:52:17;;;;;;;7.07;3.20;;;1.20;99.90;;;;;;5041972;28;20609;-88
2022/04/11 04:54:43;;;;;;;6.63;3.60;;;1.30;99.90;;;;;;5041339;28;20028;-88
2022/04/11 04:57:09;;;;;;;7.32;3.15;;;1.30;99.90;;;;;;5041965;28;20046;-89
2022/04/11 04:59:35;;;;;;;6.38;3.25;;;1.30;99.90;;;;;;5040203;28;20496;-88
2022/04/11 05:02:01;;;;;;;4.97;3.08;;;1.30;99.90;;;;;;5044654;28;20051;-88
2022/04/11 05:04:35;;;;;;;4.68;2.83;;;1.40;99.90;;;;;;5045272;28;20040;-88
2022/04/11 05:07:03;;;;;;;6.25;3.35;;;1.40;1.10;;;;;;5049545;28;20036;-88
2022/04/11 05:09:31;;;;;;;6.47;3.47;;;1.50;17.70;;;;;;5044521;28;20037;-88
2022/04/11 05:12:03;;;;;;;6.57;3.15;;;1.50;24.40;;;;;;5046339;28;20225;-88
2022/04/11 05:14:29;;;;;;;6.72;3.50;;;1.60;3.10;;;;;;5045454;28;20125;-88
2022/04/11 05:16:55;;;;;;;8.07;3.83;;;1.60;1.00;;;;;;5046800;28;20173;-88
2022/04/11 05:19:20;;;;;;;5.82;3.33;;;1.70;1.00;;;;;;5044909;28;20090;-87
2022/04/11 05:21:46;;;;;;;5.18;3.25;;;1.70;1.00;;;;;;5036639;28;20048;-88
2022/04/11 05:24:12;;;;;;;5.22;3.40;;;1.70;99.90;;;;;;5042924;28;20127;-88
2022/04/11 05:26:38;;;;;;;4.93;3.05;;;1.80;99.90;;;;;;5045505;28;20096;-88
2022/04/11 05:29:04;;;;;;;5.50;3.15;;;1.90;99.90;;;;;;5061738;28;20040;-90
2022/04/11 05:31:29;;;;;;;6.35;3.33;;;1.90;99.90;;;;;;5046162;28;20037;-88
2022/04/11 05:33:55;;;;;;;6.15;3.03;;;2.00;99.90;;;;;;5061520;28;20427;-88
2022/04/11 05:36:21;;;;;;;5.03;3.15;;;2.00;99.90;;;;;;5044496;28;20044;-88
2022/04/11 05:38:49;;;;;;;6.57;3.03;;;2.10;99.90;;;;;;5045260;28;20033;-88
2022/04/11 05:41:15;;;;;;;4.10;2.88;;;2.20;99.90;;;;;;5043337;28;20044;-88
2022/04/11 05:43:44;;;;;;;5.05;3.10;;;2.20;99.90;;;;;;5046314;28;20053;-88
2022/04/11 05:46:10;;;;;;;4.63;3.25;;;2.20;99.90;;;;;;5044921;28;20408;-89
2022/04/11 05:48:36;;;;;;;5.95;3.65;;;2.30;99.90;;;;;;5045124;28;20043;-89
2022/04/11 05:51:05;;;;;;;4.28;2.95;;;2.30;99.90;;;;;;5045014;28;20033;-89
2022/04/11 05:53:34;;;;;;;5.72;3.40;;;2.40;99.90;;;;;;5038963;28;20093;-89
2022/04/11 05:55:59;;;;;;;4.85;3.17;;;2.50;99.90;;;;;;5044696;28;20036;-90
2022/04/11 05:58:25;;;;;;;5.82;3.10;;;2.60;99.90;;;;;;5045381;28;20425;-88
2022/04/11 06:00:51;;;;;;;5.60;3.20;;;2.70;99.90;;;;;;5044982;28;20086;-88
2022/04/11 06:03:17;;;;;;;5.95;3.00;;;2.70;99.90;;;;;;5042740;28;20052;-87
2022/04/11 06:05:43;;;;;;;5.80;3.22;;;2.90;99.90;;;;;;5045394;28;20048;-88
2022/04/11 06:08:09;;;;;;;5.72;3.33;;;2.90;99.90;;;;;;5057100;28;20048;-88
2022/04/11 06:10:36;;;;;;;6.05;3.05;;;3.00;99.90;;;;;;5043649;28;20435;-88
2022/04/11 06:13:04;;;;;;;7.07;3.03;;;3.10;99.90;;;;;;5061679;28;20091;-89
2022/04/11 06:15:30;;;;;;;7.97;3.30;;;3.20;99.90;;;;;;5045178;28;20061;-88
2022/04/11 06:17:56;;;;;;;7.32;3.05;;;3.20;99.90;;;;;;5043833;28;20134;-89
2022/04/11 06:20:21;;;;;;;5.72;3.20;;;3.30;99.90;;;;;;5043700;28;20411;-89
2022/04/11 06:22:47;;;;;;;7.78;3.08;;;3.40;99.90;;;;;;5042701;28;20062;-88
2022/04/11 06:25:13;;;;;;;5.00;2.88;;;3.40;99.90;;;;;;5043301;28;20122;-89
2022/04/11 06:27:38;;;;;;;6.03;3.17;;;3.50;99.90;;;;;;5060916;28;20204;-89
2022/04/11 06:30:08;;;;;;;6.20;3.15;;;3.60;99.90;;;;;;5042436;28;20071;-87
2022/04/11 06:32:34;;;;;;;7.15;3.25;;;3.60;99.90;;;;;;5043702;28;20037;-88
2022/04/11 06:35:00;;;;;;;6.75;3.03;;;3.70;53.60;;;;;;5044680;28;20064;-89
2022/04/11 06:37:27;;;;;;;5.60;2.85;;;3.70;1.00;;;;;;5043355;28;20114;-88
2022/04/11 06:39:53;;;;;;;5.93;2.90;;;3.90;1.00;;;;;;5042651;28;20040;-87
2022/04/11 06:42:20;;;;;;;7.28;3.17;;;4.00;1.00;;;;;;5042736;28;20147;-89
2022/04/11 06:44:48;;;;;;;4.40;3.22;;;4.10;1.00;;;;;;5043367;28;20054;-88
2022/04/11 06:47:13;;;;;;;7.05;3.05;;;4.20;28.90;;;;;;5058621;28;20044;-88
2022/04/11 06:49:39;;;;;;;4.75;3.03;;;4.40;1.00;;;;;;5043121;28;20040;-88
2022/04/11 06:52:06;;;;;;;6.55;3.50;;;4.50;23.00;;;;;;5058128;28;20489;-88
2022/04/11 06:54:32;;;;;;;6.15;4.75;;;4.50;1.00;;;;;;5035681;28;20602;-88
2022/04/11 06:56:59;;;;;;;11.50;5.18;;;4.70;1.00;;;;;;5042798;28;20036;-88
2022/04/11 06:59:25;;;;;;;8.05;4.57;;;4.80;1.00;;;;;;5042509;28;20033;-88
2022/04/11 07:01:54;;;;;;;7.80;3.90;;;4.90;1.00;;;;;;5045059;28;20044;-88
2022/04/11 07:04:20;;;;;;;5.45;3.42;;;5.10;99.90;;;;;;5058443;28;20298;-89
2022/04/11 07:06:47;;;;;;;9.05;3.45;;;5.20;99.90;;;;;;5041940;28;20071;-88
2022/04/11 07:09:13;;;;;;;8.40;3.40;;;5.30;99.90;;;;;;5058953;28;20036;-87
2022/04/11 07:11:39;;;;;;;7.63;3.92;;;5.30;99.90;;;;;;5042964;28;20067;-88
2022/04/11 07:14:05;;;;;;;5.35;3.60;;;5.50;99.90;;;;;;5061210;28;20040;-88
2022/04/11 07:16:31;;;;;;;4.00;3.33;;;5.60;99.90;;;;;;5059912;28;20092;-88
2022/04/11 07:18:57;;;;;;;7.90;3.97;;;5.80;99.90;;;;;;5041841;28;20036;-88
2022/04/11 07:21:22;;;;;;;7.25;3.25;;;5.90;99.90;;;;;;5042788;28;20036;-88
2022/04/11 07:23:50;;;;;;;10.50;3.15;;;6.00;99.90;;;;;;5042092;28;20332;-89
2022/04/11 07:26:16;;;;;;;9.68;3.97;;;6.10;99.90;;;;;;5043418;28;20480;-89
2022/04/11 07:28:43;;;;;;;5.30;3.35;;;6.30;99.90;;;;;;5059515;28;20071;-89
2022/04/11 07:31:09;;;;;;;7.22;4.55;;;6.40;99.90;;;;;;5044092;28;20040;-90
2022/04/11 07:33:35;;;;;;;6.95;3.95;;;6.60;99.90;;;;;;5042580;28;20052;-88
2022/04/11 07:36:01;;;;;;;7.93;3.95;;;6.70;99.90;;;;;;5042141;28;20048;-89
2022/04/11 07:38:26;;;;;;;5.95;3.78;;;6.80;99.90;;;;;;5059091;28;20033;-90
2022/04/11 07:40:52;;;;;;;8.13;3.97;;;6.90;99.90;;;;;;5058221;28;20043;-89
2022/04/11 07:43:18;;;;;;;6.82;3.80;;;7.00;99.90;;;;;;5043413;28;20075;-89
2022/04/11 07:45:44;;;;;;;6.13;3.50;;;7.20;99.90;;;;;;5044932;28;20495;-89
2022/04/11 07:48:09;;;;;;;7.10;3.70;;;7.10;99.90;;;;;;5043453;28;20064;-89
2022/04/11 07:50:35;;;;;;;5.32;3.30;;;7.40;99.90;;;;;;5041785;28;20120;-90
2022/04/11 07:53:04;;;;;;;5.72;3.60;;;7.50;99.90;;;;;;5041889;28;20108;-90
2022/04/11 07:55:31;;;;;;;6.22;3.70;;;7.60;99.90;;;;;;5040398;28;20051;-89
2022/04/11 07:57:56;;;;;;;6.88;3.42;;;7.70;99.90;;;;;;5057030;28;20040;-91
2022/04/11 08:00:23;;;;;;;6.05;3.17;;;7.80;98.00;;;;;;5061519;28;20048;-88
2022/04/11 08:02:53;;;;;;;5.13;3.38;;;7.90;99.90;;;;;;5042821;28;20025;-89
2022/04/11 08:05:23;;;;;;;6.18;3.78;;;8.00;99.90;;;;;;5038417;28;20116;-88
2022/04/11 08:07:49;;;;;;;6.18;3.47;;;8.10;84.20;;;;;;5059375;28;20364;-90
2022/04/11 08:10:16;;;;;;;6.50;3.58;;;8.10;30.00;;;;;;5042612;28;20052;-89
2022/04/11 08:12:59;;;;;;;6.00;3.70;;;8.20;92.60;;;;;;5042399;28;20036;-90
2022/04/11 08:15:28;;;;;;;7.05;3.47;;;8.30;1.00;;;;;;5045193;28;20036;-89
2022/04/11 08:17:54;;;;;;;5.57;3.70;;;8.50;14.80;;;;;;5043310;28;20047;-89
2022/04/11 08:20:21;;;;;;;4.32;3.42;;;8.60;8.70;;;;;;5042809;28;20037;-90
2022/04/11 08:22:47;;;;;;;8.85;3.75;;;8.50;1.00;;;;;;5059116;28;20028;-89
2022/04/11 08:25:14;;;;;;;6.43;4.05;;;8.50;1.00;;;;;;5043102;28;20033;-88
2022/04/11 08:27:40;;;;;;;6.97;3.67;;;8.70;1.00;;;;;;5044045;28;20044;-89
2022/04/11 08:30:06;;;;;;;6.10;3.88;;;9.10;1.00;;;;;;5042440;28;20033;-89
2022/04/11 08:32:44;;;;;;;5.47;4.15;;;9.40;1.00;;;;;;5043860;28;20037;-89
2022/04/11 08:35:14;;;;;;;7.25;3.88;;;9.60;1.00;;;;;;5043485;28;20044;-89
2022/04/11 08:37:42;;;;;;;9.07;4.20;;;9.70;1.00;;;;;;5048135;28;20036;-90
2022/04/11 08:40:11;;;;;;;8.70;4.10;;;9.80;1.00;;;;;;5063170;28;20106;-89
2022/04/11 08:42:39;;;;;;;8.35;4.35;;;9.90;1.00;;;;;;5037983;28;20135;-91
2022/04/11 08:45:05;;;;;;;10.32;3.88;;;10.10;1.00;;;;;;5066480;28;20082;-89
2022/04/11 08:47:31;;;;;;;7.50;3.97;;;10.20;1.00;;;;;;5048064;28;20248;-90
2022/04/11 08:49:58;;;;;;;8.68;4.10;;;10.20;1.00;;;;;;5048040;28;20036;-89
2022/04/11 08:52:26;;;;;;;7.88;3.72;;;10.20;1.00;;;;;;5062941;28;20693;-89
2022/04/11 08:54:52;;;;;;;6.95;3.55;;;10.10;1.00;;;;;;5043868;28;20032;-90
2022/04/11 08:57:22;;;;;;;7.50;3.83;;;9.90;1.00;;;;;;5046392;28;20066;-89
2022/04/11 08:59:48;;;;;;;6.93;4.00;;;9.80;1.00;;;;;;5046148;28;20053;-89
2022/04/11 09:02:18;;;;;;;4.68;3.50;;;10.10;1.00;;;;;;5062396;28;20126;-90
2022/04/11 09:04:51;;;;;;;6.95;3.90;;;10.20;1.00;;;;;;5047065;28;20382;-89
2022/04/11 09:07:17;;;;;;;7.53;4.22;;;10.10;1.00;;;;;;5047034;28;20043;-89
2022/04/11 09:09:43;;;;;;;6.35;3.95;;;10.30;1.00;;;;;;5045746;28;20036;-90
2022/04/11 09:12:15;;;;;;;7.85;4.20;;;10.50;1.00;;;;;;5064637;28;20036;-90
2022/04/11 09:14:42;;;;;;;8.02;4.47;;;10.60;1.00;;;;;;5045012;28;20509;-90
2022/04/11 09:17:11;;;;;;;7.22;3.90;;;10.70;1.00;;;;;;5048149;28;20040;-89
2022/04/11 09:19:38;;;;;;;9.85;4.32;;;10.70;1.00;;;;;;5045665;28;20056;-90
2022/04/11 09:22:08;;;;;;;7.38;3.70;;;10.80;1.00;;;;;;5044306;28;20703;-89
2022/04/11 09:24:34;;;;;;;5.30;3.00;;;10.90;1.00;;;;;;5044340;28;20511;-90
2022/04/11 09:26:59;;;;;;;6.63;3.42;;;10.90;1.00;;;;;;5041038;28;20115;-89
2022/04/11 09:29:27;;;;;;;4.50;2.70;;;11.00;1.00;;;;;;5043807;28;20041;-90
2022/04/11 09:31:53;;;;;;;5.40;3.05;;;11.20;1.00;;;;;;5048051;28;20051;-89
2022/04/11 09:34:25;;;;;;;7.25;3.25;;;11.30;1.00;;;;;;5061638;28;20036;-89
2022/04/11 09:36:53;;;;;;;4.88;2.50;;;11.50;1.00;;;;;;5037437;28;20036;-89
2022/04/11 09:39:27;;;;;;;6.47;2.60;;;11.60;1.00;;;;;;5061325;28;20633;-89
2022/04/11 09:41:53;;;;;;;4.70;2.60;;;11.60;99.90;;;;;;5061925;28;20039;-90
2022/04/11 09:44:23;;;;;;;4.30;1.80;;;11.70;1.00;;;;;;5061954;28;20032;-89
2022/04/11 09:46:50;;;;;;;7.20;2.15;;;11.70;99.90;;;;;;5047490;28;20032;-91
2022/04/11 09:49:17;;;;;;;5.07;2.22;;;11.90;99.90;;;;;;5045824;28;20037;-89
2022/04/11 09:52:13;;;;;;;6.55;2.50;;;12.20;99.90;;;;;;5047516;28;20269;-89
2022/04/11 09:54:47;;;;;;;6.28;2.58;;;12.20;99.90;;;;;;5045189;28;20050;-90
2022/04/11 09:57:17;;;;;;;6.70;2.75;;;12.10;99.90;;;;;;5056195;28;20036;-89
2022/04/11 09:59:45;;;;;;;4.50;2.60;;;12.40;99.90;;;;;;5046343;28;20043;-89
2022/04/11 10:02:14;;;;;;;7.28;2.83;;;12.50;99.90;;;;;;5046482;28;20391;-88
2022/04/11 10:04:39;;;;;;;4.65;2.50;;;12.50;99.90;;;;;;5062542;28;20324;-89
2022/04/11 10:07:10;;;;;;;3.92;2.25;;;12.50;99.90;;;;;;5045551;28;20230;-89
2022/04/11 10:09:40;;;;;;;5.40;2.10;;;12.80;99.90;;;;;;5059308;28;20433;-89
2022/04/11 10:12:06;;;;;;;4.93;2.20;;;12.80;99.90;;;;;;5043556;28;20076;-89
2022/04/11 10:14:32;;;;;;;4.43;2.35;;;12.80;99.90;;;;;;5040524;28;20492;-88
2022/04/11 10:17:01;;;;;;;3.92;2.30;;;12.80;99.90;;;;;;5041286;28;20066;-90
2022/04/11 10:19:29;;;;;;;5.22;2.38;;;12.70;99.90;;;;;;5060199;28;20468;-89
2022/04/11 10:22:00;;;;;;;5.57;2.33;;;12.90;99.90;;;;;;5044363;28;20051;-89
2022/04/11 10:24:34;;;;;;;4.00;2.47;;;13.10;99.90;;;;;;5058396;28;20144;-91
2022/04/11 10:27:18;;;;;;;5.60;2.20;;;13.30;99.90;;;;;;5061369;28;20099;-91
2022/04/11 10:29:45;;;;;;;3.67;2.03;;;13.20;99.90;;;;;;5045417;28;20400;-90
2022/04/11 10:32:18;;;;;;;5.22;2.50;;;13.30;99.90;;;;;;5060993;28;20425;-89
2022/04/11 10:34:47;;;;;;;4.63;2.55;;;13.50;99.90;;;;;;5043300;28;20036;-89
2022/04/11 10:37:13;;;;;;;7.93;2.60;;;13.60;99.90;;;;;;5059823;28;20036;-90
2022/04/11 10:39:39;;;;;;;4.03;2.10;;;13.40;99.90;;;;;;5043271;28;20056;-91
2022/04/11 10:42:06;;;;;;;3.70;2.30;;;13.80;99.90;;;;;;5044207;28;20048;-90
2022/04/11 10:44:39;;;;;;;5.47;2.15;;;13.80;99.90;;;;;;5037107;28;20047;-90
2022/04/11 10:47:17;;;;;;;5.18;2.33;;;13.80;99.90;;;;;;5043112;28;20045;-90
2022/04/11 10:49:53;;;;;;;4.00;2.47;;;13.80;99.90;;;;;;5044992;28;20107;-90
2022/04/11 10:52:33;;;;;;;3.85;1.98;;;14.00;99.90;;;;;;5038790;28;20041;-89
2022/04/11 10:55:06;;;;;;;4.97;2.20;;;14.20;99.90;;;;;;5057319;28;20524;-89
2022/04/11 10:57:37;;;;;;;4.25;2.30;;;14.20;99.90;;;;;;5041967;28;20362;-90
2022/04/11 11:00:06;;;;;;;5.25;2.35;;;14.20;99.90;;;;;;5039806;28;20440;-91
2022/04/11 11:02:50;;;;;;;5.15;2.65;;;14.20;99.90;;;;;;5038404;28;20340;-89
2022/04/11 11:05:22;;;;;;;5.47;2.47;;;14.30;99.90;;;;;;5037460;28;20359;-91
2022/04/11 11:07:48;;;;;;;5.15;2.65;;;14.40;99.90;;;;;;5057033;28;20698;-90
2022/04/11 11:10:38;;;;;;;3.92;2.60;;;14.20;99.90;;;;;;5038564;28;20053;-91
2022/04/11 11:13:36;;;;;;;4.53;2.53;;;14.60;99.90;;;;;;5055478;28;20068;-90
2022/04/11 11:16:07;;;;;;;5.05;3.00;;;14.70;99.90;;;;;;5038257;28;20507;-90
2022/04/11 11:18:50;;;;;;;4.65;2.40;;;14.60;99.90;;;;;;5043289;28;20044;-89
2022/04/11 11:21:28;;;;;;;5.95;2.70;;;14.70;99.90;;;;;;5067384;28;20109;-90
2022/04/11 11:26:53;;;;;;;5.85;2.58;;;14.40;99.90;;;;;;5051536;28;20049;-91
2022/04/11 11:29:29;;;;;;;4.40;2.65;;;14.90;99.90;;;;;;5043149;28;20051;-90
2022/04/11 11:32:01;;;;;;;4.82;2.53;;;14.80;99.90;;;;;;5058752;28;20044;-90
2022/04/11 11:34:28;;;;;;;5.55;3.00;;;15.00;99.90;;;;;;5057184;28;20109;-90
2022/04/11 11:37:02;;;;;;;5.72;3.20;;;14.80;99.90;;;;;;5034171;28;20044;-90
2022/04/11 11:39:30;;;;;;;4.10;2.90;;;14.60;99.90;;;;;;5037663;28;20040;-90
2022/04/11 11:42:05;;;;;;;5.20;2.60;;;14.60;99.90;;;;;;5059866;28;20468;-90
2022/04/11 11:44:31;;;;;;;;;;;14.90;99.90;;;;;;5042706;28;20051;-90
2022/04/11 11:47:00;;;;;;;4.53;3.05;;;15.10;99.90;;;;;;5040934;28;20352;-90
2022/04/11 11:49:28;;;;;;;3.60;2.83;;;14.80;99.90;;;;;;5058603;28;20045;-90
2022/04/11 11:51:54;;;;;;;5.68;3.05;;;15.30;99.90;;;;;;5049795;28;20040;-90
2022/04/11 11:54:36;;;;;;;6.47;2.90;;;15.30;99.90;;;;;;5054477;28;20056;-89
2022/04/11 11:57:11;;;;;;;5.93;2.90;;;15.40;99.90;;;;;;5039642;28;20032;-91
2022/04/11 11:59:50;;;;;;;;;;;15.60;99.90;;;;;;5038805;28;20442;-91
2022/04/11 12:05:00;;;;;;;4.53;3.17;;;15.40;99.90;;;;;;5055885;28;20070;-90
2022/04/11 12:07:26;;;;;;;4.38;2.95;;;15.40;99.90;;;;;;5041407;28;20044;-91
2022/04/11 12:09:52;;;;;;;4.47;3.00;;;15.50;99.90;;;;;;5044545;28;20032;-89
2022/04/11 12:12:21;;;;;;;6.38;3.90;;;15.70;99.90;;;;;;5059794;28;20044;-89
2022/04/11 12:15:02;;;;;;;6.85;3.22;;;15.80;99.90;;;;;;5047194;28;20036;-90
2022/04/11 12:17:54;;;;;;;5.78;3.53;;;16.20;99.90;;;;;;5045621;28;20083;-90
2022/04/11 12:20:21;;;;;;;4.90;3.08;;;16.30;99.90;;;;;;5054483;28;20442;-90
2022/04/11 12:23:10;;;;;;;3.65;2.85;;;16.50;99.90;;;;;;5044759;28;20209;-91
2022/04/11 12:25:37;;;;;;;4.43;3.08;;;16.50;99.90;;;;;;5043480;28;20441;-90
2022/04/11 12:28:17;;;;;;;5.05;3.25;;;16.70;99.90;;;;;;5039231;28;20037;-90
2022/04/11 12:31:11;;;;;;;5.32;3.10;;;16.60;99.90;;;;;;5060815;28;20029;-92
2022/04/11 12:33:46;;;;;;;7.55;3.47;;;16.70;99.90;;;;;;5044308;28;20454;-90
2022/04/11 12:36:20;;;;;;;5.50;3.30;;;16.80;99.90;;;;;;5056993;28;20244;-90
2022/04/11 12:39:06;;;;;;;6.63;3.22;;;17.10;99.90;;;;;;5059622;28;20349;-92
2022/04/11 12:41:36;;;;;;;8.48;3.63;;;16.70;99.90;;;;;;5044155;28;20048;-90
2022/04/11 12:44:35;;;;;;;5.45;3.35;;;16.80;99.90;;;;;;5041006;28;20040;-91
2022/04/11 12:47:00;;;;;;;5.13;3.22;;;17.10;99.90;;;;;;5037006;28;20037;-91
2022/04/11 12:49:47;;;;;;;4.43;3.28;;;17.10;99.90;;;;;;5061615;28;20098;-90
2022/04/11 12:52:16;;;;;;;4.57;3.05;;;17.10;99.90;;;;;;5045240;28;20068;-91
2022/04/11 12:54:43;;;;;;;6.03;3.28;;;16.90;99.90;;;;;;5044745;28;20705;-91
2022/04/11 12:57:12;;;;;;;4.20;3.40;;;17.40;99.90;;;;;;5048283;28;20142;-91
2022/04/11 12:59:42;;;;;;;6.68;3.42;;;17.40;99.90;;;;;;5047011;28;20032;-90
2022/04/11 13:02:10;;;;;;;3.90;3.10;;;17.20;99.90;;;;;;5049880;28;20040;-91
2022/04/11 13:04:38;;;;;;;5.95;3.40;;;16.80;99.90;;;;;;5039912;28;20595;-90
2022/04/11 13:07:04;;;;;;;4.65;3.10;;;17.20;99.90;;;;;;5048258;28;20040;-92
2022/04/11 13:09:30;;;;;;;6.05;3.45;;;17.30;99.90;;;;;;5045828;28;20035;-91